Time;durP1;ratioP1;P1;durP2;ratioP2;P2;SDS_P1;SDS_P2;PMS_P1;PMS_P2;Temp;Humidity;BMP_temperature;BMP_pressure;BME280_temperature;BME280_humidity;BME280_pressure;Samples;Min_cycle;Max_cycle;Signal;HPM_P1;HPM_P2
2021/09/03 00:00:00;;;;;;;21.23;12.43;;;15.20;99.90;;;;;;5083942;28;20466;-74
2021/09/03 00:02:27;;;;;;;16.73;12.27;;;15.20;99.90;;;;;;5083135;28;20469;-74
2021/09/03 00:04:55;;;;;;;17.77;12.40;;;15.20;99.90;;;;;;5082309;28;20465;-73
2021/09/03 00:07:22;;;;;;;19.00;13.10;;;15.10;99.90;;;;;;5082424;28;20473;-74
2021/09/03 00:09:49;;;;;;;15.33;12.00;;;15.20;99.90;;;;;;5083906;28;20840;-73
2021/09/03 00:12:15;;;;;;;18.27;12.90;;;15.20;99.90;;;;;;5092784;28;20568;-73
2021/09/03 00:14:42;;;;;;;18.27;12.10;;;15.20;99.90;;;;;;5093399;28;20514;-73
2021/09/03 00:17:12;;;;;;;18.97;13.00;;;15.10;99.90;;;;;;5092763;28;20230;-73
2021/09/03 00:19:39;;;;;;;19.13;12.43;;;15.10;99.90;;;;;;5091618;28;20454;-73
2021/09/03 00:22:05;;;;;;;18.60;13.13;;;15.10;99.90;;;;;;5092498;28;20469;-73
2021/09/03 00:24:32;;;;;;;19.30;13.40;;;15.10;99.90;;;;;;5092473;28;20234;-73
2021/09/03 00:26:59;;;;;;;17.37;12.70;;;15.10;99.90;;;;;;5092528;28;20489;-73
2021/09/03 00:29:26;;;;;;;18.43;11.90;;;15.10;99.90;;;;;;5087215;28;20499;-74
2021/09/03 00:31:52;;;;;;;18.42;13.05;;;15.10;99.90;;;;;;5081607;28;20454;-74
2021/09/03 00:34:20;;;;;;;16.60;12.60;;;15.10;99.90;;;;;;5080719;28;20196;-75
2021/09/03 00:36:48;;;;;;;15.23;11.37;;;15.10;99.90;;;;;;5082265;28;20458;-74
2021/09/03 00:39:15;;;;;;;18.60;12.27;;;15.10;99.90;;;;;;5081287;28;20478;-74
2021/09/03 00:41:42;;;;;;;16.25;12.13;;;15.00;99.90;;;;;;5079716;28;20459;-73
2021/09/03 00:44:08;;;;;;;18.10;11.93;;;15.10;99.90;;;;;;5079314;28;20243;-72
2021/09/03 00:46:35;;;;;;;17.73;11.83;;;15.10;99.90;;;;;;5091883;28;20566;-73
2021/09/03 00:49:02;;;;;;;16.45;12.63;;;15.10;99.90;;;;;;5094085;28;20454;-73
2021/09/03 00:51:33;;;;;;;19.47;11.80;;;15.00;99.90;;;;;;5093622;28;20204;-73
2021/09/03 00:54:00;;;;;;;19.30;13.35;;;15.10;99.90;;;;;;5094143;28;20434;-73
2021/09/03 00:56:27;;;;;;;19.20;13.10;;;15.10;99.90;;;;;;5093305;28;20200;-73
2021/09/03 00:58:55;;;;;;;26.73;14.40;;;15.10;99.90;;;;;;5094594;28;20469;-73
2021/09/03 01:01:22;;;;;;;21.37;14.20;;;15.10;99.90;;;;;;5094532;28;20470;-73
2021/09/03 01:03:49;;;;;;;19.37;14.30;;;15.10;99.90;;;;;;5094096;28;20484;-73
2021/09/03 01:06:18;;;;;;;17.23;12.80;;;15.00;99.90;;;;;;5094067;28;20454;-73
2021/09/03 01:08:46;;;;;;;18.20;11.70;;;15.00;99.90;;;;;;5094217;28;20462;-73
2021/09/03 01:11:16;;;;;;;21.70;14.10;;;15.00;99.90;;;;;;5093658;28;20462;-73
2021/09/03 01:13:43;;;;;;;21.33;13.68;;;15.00;99.90;;;;;;5093819;28;20457;-73
2021/09/03 01:16:10;;;;;;;21.52;13.50;;;15.00;99.90;;;;;;5093257;28;20203;-71
2021/09/03 01:18:37;;;;;;;20.40;14.67;;;15.10;99.90;;;;;;5093441;28;20218;-73
2021/09/03 01:21:03;;;;;;;18.40;14.07;;;15.10;99.90;;;;;;5092309;28;20454;-73
2021/09/03 01:23:31;;;;;;;16.83;13.37;;;15.10;99.90;;;;;;5093656;28;20592;-73
2021/09/03 01:26:01;;;;;;;20.43;13.23;;;15.10;99.90;;;;;;5093889;28;20454;-73
2021/09/03 01:28:28;;;;;;;19.07;12.40;;;15.00;99.90;;;;;;5094122;28;20943;-73
2021/09/03 01:30:55;;;;;;;17.20;12.40;;;15.00;99.90;;;;;;5093475;28;20455;-73
2021/09/03 01:33:21;;;;;;;21.33;13.55;;;15.00;99.90;;;;;;5093253;28;20447;-72
2021/09/03 01:35:48;;;;;;;16.30;12.47;;;15.00;99.90;;;;;;5093373;28;20204;-74
2021/09/03 01:38:15;;;;;;;22.95;12.95;;;15.00;99.90;;;;;;5094383;28;20480;-72
2021/09/03 01:40:44;;;;;;;19.27;12.10;;;15.00;99.90;;;;;;5093231;28;20445;-73
2021/09/03 01:43:10;;;;;;;15.60;11.93;;;15.00;99.90;;;;;;5093469;28;20790;-73
2021/09/03 01:45:37;;;;;;;17.77;13.57;;;15.00;99.90;;;;;;5083957;28;20717;-70
2021/09/03 01:48:05;;;;;;;19.48;12.65;;;15.00;99.90;;;;;;5075403;28;20842;-71
2021/09/03 01:50:31;;;;;;;18.13;12.13;;;14.90;99.90;;;;;;5074952;28;20518;-71
2021/09/03 01:52:58;;;;;;;18.27;12.77;;;15.00;99.90;;;;;;5075393;28;20447;-73
2021/09/03 01:55:25;;;;;;;18.50;13.47;;;14.90;99.90;;;;;;5075247;28;20462;-70
2021/09/03 01:57:55;;;;;;;16.53;12.47;;;14.90;99.90;;;;;;5075039;28;20794;-70
2021/09/03 02:00:22;;;;;;;17.97;12.20;;;14.90;99.90;;;;;;5074787;28;20519;-72
2021/09/03 02:02:48;;;;;;;20.93;12.83;;;14.80;99.90;;;;;;5074735;28;20964;-70
2021/09/03 02:05:15;;;;;;;19.27;11.70;;;14.80;99.90;;;;;;5074725;28;20458;-71
2021/09/03 02:07:44;;;;;;;18.23;13.50;;;14.80;99.90;;;;;;5074917;28;20458;-72
2021/09/03 02:10:11;;;;;;;21.17;12.47;;;14.80;99.90;;;;;;5075002;28;20199;-72
2021/09/03 02:12:38;;;;;;;17.37;12.00;;;14.80;99.90;;;;;;5074561;28;20836;-72
2021/09/03 02:15:08;;;;;;;17.63;13.57;;;14.80;99.90;;;;;;5074266;28;20450;-72
2021/09/03 02:17:35;;;;;;;19.17;12.97;;;14.80;99.90;;;;;;5080615;28;20458;-74
2021/09/03 02:20:01;;;;;;;17.83;13.97;;;14.80;99.90;;;;;;5082005;28;20458;-75
2021/09/03 02:22:28;;;;;;;16.23;13.03;;;14.70;99.90;;;;;;5082881;28;20466;-74
2021/09/03 02:24:55;;;;;;;19.07;13.60;;;14.70;99.90;;;;;;5084024;28;20489;-74
2021/09/03 02:27:21;;;;;;;17.23;12.27;;;14.70;99.90;;;;;;5084669;28;20458;-74
2021/09/03 02:29:48;;;;;;;19.17;11.53;;;14.70;99.90;;;;;;5082775;28;20200;-74
2021/09/03 02:32:19;;;;;;;20.27;13.30;;;14.70;99.90;;;;;;5083911;28;20457;-74
2021/09/03 02:34:49;;;;;;;18.63;13.07;;;14.70;99.90;;;;;;5083444;28;20883;-74
2021/09/03 02:37:16;;;;;;;19.70;13.27;;;14.60;99.90;;;;;;5083040;28;20454;-74
2021/09/03 02:39:43;;;;;;;20.80;13.20;;;14.60;99.90;;;;;;5083738;28;20493;-74
2021/09/03 02:42:10;;;;;;;25.37;13.83;;;14.60;99.90;;;;;;5083756;28;20450;-74
2021/09/03 02:44:37;;;;;;;20.02;12.82;;;14.60;99.90;;;;;;5078143;28;20509;-71
2021/09/03 02:47:07;;;;;;;19.63;12.40;;;14.60;99.90;;;;;;5077756;28;20254;-72
2021/09/03 02:49:35;;;;;;;21.27;12.87;;;14.60;99.90;;;;;;5077914;28;20454;-72
2021/09/03 02:52:02;;;;;;;18.80;12.77;;;14.50;99.90;;;;;;5077400;28;20557;-72
2021/09/03 02:54:29;;;;;;;21.17;13.25;;;14.50;99.90;;;;;;5077754;28;20789;-72
2021/09/03 02:56:55;;;;;;;19.13;13.17;;;14.50;99.90;;;;;;5077334;28;20269;-72
2021/09/03 02:59:22;;;;;;;23.67;13.87;;;14.50;99.90;;;;;;5077625;28;20805;-72
2021/09/03 03:01:52;;;;;;;20.80;13.63;;;14.40;99.90;;;;;;5077593;28;20457;-72
2021/09/03 03:04:18;;;;;;;20.60;13.30;;;14.40;99.90;;;;;;5077129;28;20543;-71
2021/09/03 03:06:48;;;;;;;21.60;14.77;;;14.40;99.90;;;;;;5077678;28;20725;-72
2021/09/03 03:09:18;;;;;;;20.63;14.07;;;14.40;99.90;;;;;;5079002;28;20208;-72
2021/09/03 03:11:45;;;;;;;18.97;13.23;;;14.40;99.90;;;;;;5077069;28;20454;-72
2021/09/03 03:14:16;;;;;;;22.87;12.83;;;14.40;99.90;;;;;;5077899;28;20786;-72
2021/09/03 03:16:42;;;;;;;20.23;13.43;;;14.40;99.90;;;;;;5077364;28;20438;-72
2021/09/03 03:19:10;;;;;;;18.63;13.10;;;14.40;99.90;;;;;;5077884;28;20694;-72
2021/09/03 03:21:37;;;;;;;23.80;15.07;;;14.40;99.90;;;;;;5077649;28;20500;-71
2021/09/03 03:24:05;;;;;;;23.50;14.82;;;14.40;99.90;;;;;;5077399;28;20485;-72
2021/09/03 03:26:32;;;;;;;20.20;13.47;;;14.40;99.90;;;;;;5077295;28;20270;-72
2021/09/03 03:28:59;;;;;;;20.03;12.67;;;14.40;99.90;;;;;;5077320;28;20765;-71
2021/09/03 03:31:25;;;;;;;20.23;13.77;;;14.40;99.90;;;;;;5076643;28;20457;-71
2021/09/03 03:33:52;;;;;;;27.00;15.18;;;14.40;99.90;;;;;;5077199;28;20461;-72
2021/09/03 03:36:19;;;;;;;22.80;13.97;;;14.40;99.90;;;;;;5076726;28;20719;-72
2021/09/03 03:38:45;;;;;;;21.88;14.52;;;14.40;99.90;;;;;;5077663;28;20505;-72
2021/09/03 03:41:14;;;;;;;18.80;14.30;;;14.40;99.90;;;;;;5077193;28;20211;-72
2021/09/03 03:43:40;;;;;;;24.97;14.90;;;14.40;99.90;;;;;;5077268;28;20492;-72
2021/09/03 03:46:08;;;;;;;25.40;14.63;;;14.40;99.90;;;;;;5077109;28;20931;-72
2021/09/03 03:48:35;;;;;;;20.80;14.60;;;14.40;99.90;;;;;;5076849;28;20458;-70
2021/09/03 03:51:01;;;;;;;23.93;15.37;;;14.40;99.90;;;;;;5076869;28;20459;-71
2021/09/03 03:53:28;;;;;;;25.90;15.53;;;14.30;99.90;;;;;;5076676;28;20450;-72
2021/09/03 03:55:58;;;;;;;19.60;14.07;;;14.30;99.90;;;;;;5076572;28;20465;-72
2021/09/03 03:58:26;;;;;;;24.13;15.00;;;14.30;99.90;;;;;;5076362;28;20457;-72
2021/09/03 04:00:53;;;;;;;22.50;13.43;;;14.30;99.90;;;;;;5076390;28;20466;-71
2021/09/03 04:03:19;;;;;;;22.83;13.73;;;14.20;99.90;;;;;;5076695;28;20463;-72
2021/09/03 04:05:46;;;;;;;24.70;15.37;;;14.20;99.90;;;;;;5076067;28;20985;-71
2021/09/03 04:08:15;;;;;;;20.30;15.03;;;14.20;99.90;;;;;;5076351;28;20465;-71
2021/09/03 04:10:42;;;;;;;22.43;14.37;;;14.20;99.90;;;;;;5076187;28;20475;-72
2021/09/03 04:13:09;;;;;;;21.83;14.40;;;14.20;99.90;;;;;;5075986;28;20469;-72
2021/09/03 04:15:37;;;;;;;25.27;14.93;;;14.20;99.90;;;;;;5076278;28;20908;-72
2021/09/03 04:18:05;;;;;;;23.17;13.97;;;14.10;99.90;;;;;;5076086;28;20830;-72
2021/09/03 04:20:32;;;;;;;28.10;14.97;;;14.10;99.90;;;;;;5076093;28;20458;-72
2021/09/03 04:22:59;;;;;;;20.43;15.03;;;14.20;99.90;;;;;;5076402;28;20458;-72
2021/09/03 04:25:26;;;;;;;22.30;13.93;;;14.20;99.90;;;;;;5076263;28;20488;-72
2021/09/03 04:27:53;;;;;;;22.53;14.00;;;14.20;99.90;;;;;;5075652;28;20454;-72
2021/09/03 04:30:19;;;;;;;19.40;13.90;;;14.20;99.90;;;;;;5075388;28;20454;-72
2021/09/03 04:32:47;;;;;;;20.90;13.20;;;14.20;99.90;;;;;;5075820;28;20783;-71
2021/09/03 04:35:14;;;;;;;23.53;14.37;;;14.20;99.90;;;;;;5076114;28;20454;-72
2021/09/03 04:37:44;;;;;;;26.77;15.70;;;14.20;99.90;;;;;;5075803;28;20960;-71
2021/09/03 04:40:11;;;;;;;29.92;15.00;;;14.20;99.90;;;;;;5076179;28;20443;-72
2021/09/03 04:42:41;;;;;;;21.70;14.53;;;14.20;99.90;;;;;;5089064;28;20644;-72
2021/09/03 04:45:09;;;;;;;22.93;14.63;;;14.30;99.90;;;;;;5085551;28;20481;-73
2021/09/03 04:47:38;;;;;;;25.80;14.65;;;14.30;99.90;;;;;;5085702;28;20477;-73
2021/09/03 04:50:07;;;;;;;22.20;14.63;;;14.30;99.90;;;;;;5084223;28;20635;-72
2021/09/03 04:52:34;;;;;;;20.70;15.80;;;14.30;99.90;;;;;;5085192;28;20637;-73
2021/09/03 04:55:01;;;;;;;19.73;14.97;;;14.40;99.90;;;;;;5085959;28;20923;-73
2021/09/03 04:57:29;;;;;;;22.67;15.80;;;14.30;99.90;;;;;;5084293;28;20477;-73
2021/09/03 04:59:55;;;;;;;20.40;14.50;;;14.30;99.90;;;;;;5086956;28;20468;-73
2021/09/03 05:02:22;;;;;;;25.00;14.27;;;14.30;99.90;;;;;;5080783;28;20195;-71
2021/09/03 05:04:49;;;;;;;26.08;15.65;;;14.30;99.90;;;;;;5075540;28;20485;-72
2021/09/03 05:07:17;;;;;;;20.33;14.20;;;14.30;99.90;;;;;;5075057;28;20200;-71
2021/09/03 05:09:43;;;;;;;24.40;14.70;;;14.40;99.90;;;;;;5075073;28;20914;-72
2021/09/03 05:12:10;;;;;;;23.63;14.23;;;14.40;99.90;;;;;;5075176;28;20458;-71
2021/09/03 05:14:37;;;;;;;27.23;16.20;;;14.40;99.90;;;;;;5075323;28;20838;-71
2021/09/03 05:17:04;;;;;;;22.50;14.47;;;14.50;99.90;;;;;;5075768;28;20454;-71
2021/09/03 05:19:31;;;;;;;23.53;15.37;;;14.50;99.90;;;;;;5074745;28;20461;-71
2021/09/03 05:21:58;;;;;;;24.10;15.43;;;14.50;99.90;;;;;;5075494;28;20838;-71
2021/09/03 05:24:26;;;;;;;22.80;15.00;;;14.50;99.90;;;;;;5074840;28;20485;-71
2021/09/03 05:26:52;;;;;;;22.70;15.30;;;14.50;99.90;;;;;;5075579;28;20458;-71
2021/09/03 05:29:21;;;;;;;22.83;15.75;;;14.50;99.90;;;;;;5076064;28;20833;-71
2021/09/03 05:31:48;;;;;;;21.87;15.70;;;14.60;99.90;;;;;;5074961;28;20203;-72
2021/09/03 05:34:14;;;;;;;21.73;16.20;;;14.60;99.90;;;;;;5074475;28;20446;-72
2021/09/03 05:36:44;;;;;;;29.00;14.80;;;14.60;99.90;;;;;;5074636;28;20204;-72
2021/09/03 05:39:10;;;;;;;23.67;15.13;;;14.70;99.90;;;;;;5074783;28;20530;-72
2021/09/03 05:41:40;;;;;;;27.93;16.03;;;14.70;99.90;;;;;;5074588;28;20204;-72
2021/09/03 05:44:08;;;;;;;19.95;14.35;;;14.70;99.90;;;;;;5074551;28;20458;-73
2021/09/03 05:46:35;;;;;;;24.30;16.40;;;14.70;99.90;;;;;;5073952;28;20655;-73
2021/09/03 05:49:02;;;;;;;30.50;17.17;;;14.80;99.90;;;;;;5074670;28;20485;-72
2021/09/03 05:51:28;;;;;;;21.33;14.87;;;14.70;99.90;;;;;;5074393;28;20774;-72
2021/09/03 05:53:55;;;;;;;29.43;15.33;;;14.70;99.90;;;;;;5074475;28;20458;-71
2021/09/03 05:56:22;;;;;;;20.77;15.17;;;14.80;99.90;;;;;;5077156;28;20450;-71
2021/09/03 05:58:50;;;;;;;25.67;15.60;;;14.80;99.90;;;;;;5077932;28;20450;-71
2021/09/03 06:01:16;;;;;;;22.70;15.40;;;14.90;99.90;;;;;;5078544;28;20454;-71
2021/09/03 06:03:43;;;;;;;22.73;15.80;;;14.90;99.90;;;;;;5078466;28;20469;-72
2021/09/03 06:06:10;;;;;;;31.47;17.47;;;14.90;99.90;;;;;;5078060;28;20469;-72
2021/09/03 06:08:36;;;;;;;25.27;15.43;;;15.00;99.90;;;;;;5078052;28;20467;-73
2021/09/03 06:11:03;;;;;;;29.67;16.17;;;15.00;99.90;;;;;;5078100;28;20469;-72
2021/09/03 06:13:33;;;;;;;25.90;17.53;;;15.10;99.90;;;;;;5079101;28;20515;-72
2021/09/03 06:16:01;;;;;;;22.43;16.73;;;15.10;99.90;;;;;;5080779;28;20852;-72
2021/09/03 06:18:28;;;;;;;22.00;17.10;;;15.10;99.90;;;;;;5077626;28;20465;-72
2021/09/03 06:20:54;;;;;;;23.33;16.25;;;15.10;99.90;;;;;;5078248;28;20841;-71
2021/09/03 06:23:24;;;;;;;21.87;16.90;;;15.10;99.90;;;;;;5085450;28;20230;-72
2021/09/03 06:25:50;;;;;;;30.20;17.70;;;15.20;99.90;;;;;;5092508;28;20482;-72
2021/09/03 06:28:20;;;;;;;21.33;16.20;;;15.30;99.90;;;;;;5092707;28;20267;-73
2021/09/03 06:30:46;;;;;;;26.90;15.93;;;15.30;99.90;;;;;;5092955;28;20758;-72
2021/09/03 06:33:15;;;;;;;21.80;16.10;;;15.20;99.90;;;;;;5092898;28;20454;-72
2021/09/03 06:35:42;;;;;;;22.80;15.93;;;15.30;99.90;;;;;;5093756;28;20450;-71
2021/09/03 06:38:09;;;;;;;23.17;16.80;;;15.30;99.90;;;;;;5089187;28;20494;-71
2021/09/03 06:40:36;;;;;;;21.87;16.10;;;15.30;99.90;;;;;;5091711;28;20449;-71
2021/09/03 06:43:03;;;;;;;22.73;16.13;;;15.20;99.90;;;;;;5092680;28;20560;-71
2021/09/03 06:45:29;;;;;;;27.27;16.40;;;15.20;99.90;;;;;;5092890;28;20474;-72
2021/09/03 06:47:56;;;;;;;25.40;16.70;;;15.20;99.90;;;;;;5092213;28;20914;-72
2021/09/03 06:50:24;;;;;;;24.93;16.60;;;15.20;99.90;;;;;;5091009;28;20462;-74
2021/09/03 06:52:53;;;;;;;19.00;14.93;;;15.20;99.90;;;;;;5089214;28;20466;-71
2021/09/03 06:55:20;;;;;;;21.23;15.87;;;15.30;99.90;;;;;;5086840;28;20460;-71
2021/09/03 06:57:47;;;;;;;22.10;16.00;;;15.30;99.90;;;;;;5089620;28;20457;-72
2021/09/03 07:00:14;;;;;;;20.17;15.33;;;15.30;99.90;;;;;;5090653;28;20458;-72
2021/09/03 07:02:41;;;;;;;22.53;15.70;;;15.30;99.90;;;;;;5091056;28;20455;-72
2021/09/03 07:05:09;;;;;;;18.87;14.73;;;15.40;99.90;;;;;;5091524;28;20560;-73
2021/09/03 07:07:38;;;;;;;21.10;14.60;;;15.40;99.90;;;;;;5091174;28;20518;-73
2021/09/03 07:10:05;;;;;;;22.80;15.23;;;15.40;99.90;;;;;;5089783;28;20483;-72
2021/09/03 07:12:32;;;;;;;19.27;14.00;;;15.50;99.90;;;;;;5089814;28;20781;-72
2021/09/03 07:14:59;;;;;;;22.10;15.13;;;15.50;99.90;;;;;;5085590;28;20458;-73
2021/09/03 07:17:25;;;;;;;22.60;15.90;;;15.50;99.90;;;;;;5089211;28;20461;-73
2021/09/03 07:19:52;;;;;;;19.80;14.37;;;15.60;99.90;;;;;;5085121;28;20458;-72
2021/09/03 07:22:19;;;;;;;22.67;13.97;;;15.60;99.90;;;;;;5088036;28;20466;-73
2021/09/03 07:24:47;;;;;;;25.40;15.40;;;15.70;99.90;;;;;;5088476;28;20489;-73
2021/09/03 07:27:13;;;;;;;17.03;12.80;;;15.70;99.90;;;;;;5087732;28;20514;-73
2021/09/03 07:29:41;;;;;;;22.95;13.90;;;15.90;99.90;;;;;;5088651;28;20465;-73
2021/09/03 07:32:08;;;;;;;18.73;14.00;;;16.00;99.90;;;;;;5085839;28;20207;-73
2021/09/03 07:34:35;;;;;;;17.27;12.30;;;16.10;99.90;;;;;;5087124;28;20208;-72
2021/09/03 07:37:02;;;;;;;24.27;14.17;;;16.20;99.90;;;;;;5082466;28;20484;-72
2021/09/03 07:39:29;;;;;;;19.92;12.85;;;16.30;99.90;;;;;;5076757;28;20482;-71
2021/09/03 07:41:57;;;;;;;21.35;14.80;;;16.30;99.90;;;;;;5076766;28;20286;-72
2021/09/03 07:44:25;;;;;;;14.90;12.37;;;16.50;99.90;;;;;;5076540;28;20227;-72
2021/09/03 07:46:52;;;;;;;18.80;12.27;;;16.50;99.90;;;;;;5076245;28;20513;-71
2021/09/03 07:49:19;;;;;;;19.50;12.43;;;16.60;99.90;;;;;;5076130;28;20465;-72
2021/09/03 07:51:45;;;;;;;16.40;13.27;;;16.70;99.90;;;;;;5076201;28;20942;-72
2021/09/03 07:54:12;;;;;;;16.10;12.27;;;16.80;99.90;;;;;;5076763;28;20219;-71
2021/09/03 07:56:39;;;;;;;18.03;11.90;;;16.90;99.90;;;;;;5076379;28;20458;-72
2021/09/03 07:59:07;;;;;;;18.30;12.10;;;17.00;99.90;;;;;;5076472;28;20769;-72
2021/09/03 08:01:33;;;;;;;18.37;12.10;;;16.90;99.90;;;;;;5076552;28;20458;-71
2021/09/03 08:04:00;;;;;;;16.65;11.43;;;17.00;99.90;;;;;;5076190;28;20481;-72
2021/09/03 08:06:27;;;;;;;19.93;12.13;;;17.00;99.90;;;;;;5077022;28;20228;-72
2021/09/03 08:08:54;;;;;;;19.47;11.33;;;17.10;99.90;;;;;;5077483;28;20458;-72
2021/09/03 08:11:20;;;;;;;15.88;11.65;;;17.20;99.90;;;;;;5076735;28;20458;-71
2021/09/03 08:13:47;;;;;;;18.30;12.65;;;17.20;99.90;;;;;;5076734;28;20214;-73
2021/09/03 08:16:18;;;;;;;16.63;11.30;;;17.30;99.90;;;;;;5076942;28;20207;-75
2021/09/03 08:18:45;;;;;;;14.87;11.10;;;17.40;99.90;;;;;;5076430;28;20438;-73
2021/09/03 08:21:12;;;;;;;19.60;11.30;;;17.40;99.90;;;;;;5076224;28;20937;-73
2021/09/03 08:23:38;;;;;;;17.37;11.77;;;17.50;99.90;;;;;;5077066;28;20549;-73
2021/09/03 08:26:05;;;;;;;17.90;11.67;;;17.60;99.90;;;;;;5077487;28;20485;-74
2021/09/03 08:28:32;;;;;;;16.85;12.50;;;17.60;99.90;;;;;;5077909;28;20466;-73
2021/09/03 08:30:59;;;;;;;16.70;11.90;;;17.60;99.90;;;;;;5076191;28;20208;-75
2021/09/03 08:33:29;;;;;;;17.30;12.20;;;17.60;99.90;;;;;;5075988;28;20204;-74
2021/09/03 08:35:56;;;;;;;19.93;12.70;;;17.70;99.90;;;;;;5076567;28;20446;-75
2021/09/03 08:38:23;;;;;;;20.63;11.63;;;17.70;99.90;;;;;;5075639;28;20543;-74
2021/09/03 08:40:51;;;;;;;16.38;10.80;;;17.60;99.90;;;;;;5076205;28;20458;-74
2021/09/03 08:43:20;;;;;;;14.97;10.60;;;17.70;99.90;;;;;;5076103;28;20211;-74
2021/09/03 08:45:47;;;;;;;15.93;11.70;;;17.80;99.90;;;;;;5075672;28;20540;-74
2021/09/03 08:48:18;;;;;;;15.63;11.43;;;17.80;99.90;;;;;;5077027;28;20451;-73
2021/09/03 08:50:46;;;;;;;13.83;11.50;;;17.80;99.90;;;;;;5076679;28;20725;-75
2021/09/03 08:53:17;;;;;;;14.77;11.40;;;17.80;99.90;;;;;;5076925;28;20465;-75
2021/09/03 08:55:45;;;;;;;13.05;10.48;;;17.90;99.90;;;;;;5076239;28;20446;-74
2021/09/03 08:58:15;;;;;;;16.47;11.10;;;17.90;99.90;;;;;;5075650;28;20609;-75
2021/09/03 09:00:44;;;;;;;19.60;12.13;;;18.10;99.90;;;;;;5075380;28;20454;-74
2021/09/03 09:03:13;;;;;;;13.40;10.70;;;18.10;99.90;;;;;;5079859;28;20481;-74
2021/09/03 09:05:50;;;;;;;16.60;10.80;;;18.10;99.90;;;;;;5084181;28;20504;-73
2021/09/03 09:08:19;;;;;;;19.75;11.50;;;18.10;99.90;;;;;;5082642;28;20449;-73
2021/09/03 09:10:47;;;;;;;17.50;10.98;;;18.20;99.90;;;;;;5082904;28;20203;-74
2021/09/03 09:13:16;;;;;;;13.77;10.43;;;18.30;99.90;;;;;;5082963;28;20203;-74
2021/09/03 09:15:43;;;;;;;20.10;11.60;;;18.40;99.90;;;;;;5080533;28;20465;-74
2021/09/03 09:18:10;;;;;;;17.20;11.30;;;18.50;99.90;;;;;;5076063;28;20830;-74
2021/09/03 09:20:37;;;;;;;14.60;11.50;;;18.50;99.90;;;;;;5077551;28;20545;-75
2021/09/03 09:23:08;;;;;;;16.13;11.00;;;18.50;99.90;;;;;;5078511;28;20482;-76
2021/09/03 09:25:37;;;;;;;15.67;11.27;;;18.50;99.90;;;;;;5075154;28;20462;-73
2021/09/03 09:28:24;;;;;;;14.07;10.75;;;18.50;99.90;;;;;;5075421;28;20940;-75
2021/09/03 09:30:51;;;;;;;14.50;10.60;;;18.60;99.90;;;;;;5070727;28;20199;-75
2021/09/03 09:33:19;;;;;;;29.53;11.17;;;18.60;99.90;;;;;;5075466;28;20462;-74
2021/09/03 09:35:48;;;;;;;12.83;10.17;;;18.80;99.90;;;;;;5074930;28;20458;-74
2021/09/03 09:38:18;;;;;;;14.23;10.03;;;18.80;99.90;;;;;;5075077;28;20534;-75
2021/09/03 09:40:48;;;;;;;13.30;10.33;;;18.90;99.90;;;;;;5074588;28;20936;-75
2021/09/03 09:43:30;;;;;;;19.42;10.57;;;18.90;99.90;;;;;;5075564;28;20464;-75
2021/09/03 09:46:15;;;;;;;20.00;13.10;;;19.00;99.90;;;;;;5075613;28;20219;-75
2021/09/03 09:49:07;;;;;;;15.40;9.70;;;19.20;99.90;;;;;;5077836;28;20508;-74
2021/09/03 09:51:37;;;;;;;14.65;9.88;;;19.20;99.90;;;;;;5076950;28;20446;-73
2021/09/03 09:54:08;;;;;;;16.02;10.00;;;19.20;99.90;;;;;;5076524;28;20212;-74
2021/09/03 09:56:36;;;;;;;11.60;9.40;;;19.30;99.90;;;;;;5077220;28;20256;-73
2021/09/03 09:59:06;;;;;;;20.93;9.10;;;19.50;99.90;;;;;;5075201;28;20454;-73
2021/09/03 10:01:36;;;;;;;14.67;8.80;;;19.50;99.90;;;;;;5074484;28;20462;-74
2021/09/03 10:04:08;;;;;;;12.70;9.60;;;19.60;99.90;;;;;;5074860;28;20449;-73
2021/09/03 10:06:36;;;;;;;15.18;9.70;;;19.70;99.90;;;;;;5074558;28;20485;-73
2021/09/03 10:09:07;;;;;;;11.60;8.73;;;19.80;99.90;;;;;;5074571;28;20204;-74
2021/09/03 10:11:35;;;;;;;12.80;9.17;;;19.90;99.90;;;;;;5076044;28;20507;-75
2021/09/03 10:14:02;;;;;;;17.37;9.67;;;19.90;99.90;;;;;;5075053;28;20469;-74
2021/09/03 10:16:29;;;;;;;14.57;8.80;;;19.90;99.90;;;;;;5075064;28;20497;-75
2021/09/03 10:18:58;;;;;;;15.30;9.67;;;20.00;99.90;;;;;;5075916;28;20470;-75
2021/09/03 10:21:27;;;;;;;12.60;9.73;;;20.10;99.90;;;;;;5075271;28;20454;-75
2021/09/03 10:23:56;;;;;;;13.20;8.90;;;20.00;99.90;;;;;;5075223;28;20475;-75
2021/09/03 10:26:27;;;;;;;11.10;8.60;;;20.00;99.90;;;;;;5075340;28;20788;-75
2021/09/03 10:29:13;;;;;;;9.60;8.43;;;20.10;99.90;;;;;;5075633;28;20803;-74
2021/09/03 10:32:11;;;;;;;11.53;7.97;;;20.20;99.90;;;;;;5074710;28;20219;-75
2021/09/03 10:34:58;;;;;;;12.33;9.20;;;20.40;99.90;;;;;;5076291;28;20939;-75
2021/09/03 10:37:37;;;;;;;13.53;8.47;;;20.50;99.90;;;;;;5075129;28;20431;-75
2021/09/03 10:40:14;;;;;;;12.23;8.40;;;20.50;99.90;;;;;;5076660;28;20450;-75
2021/09/03 10:42:56;;;;;;;12.20;8.73;;;20.60;99.90;;;;;;5077690;28;20442;-75
2021/09/03 10:45:39;;;;;;;14.00;8.90;;;20.70;99.90;;;;;;5078767;28;20849;-75
2021/09/03 10:48:12;;;;;;;12.47;9.07;;;20.70;99.90;;;;;;5078078;28;20434;-76
2021/09/03 10:50:44;;;;;;;11.57;8.97;;;20.80;99.90;;;;;;5077527;28;20508;-74
2021/09/03 10:53:33;;;;;;;12.57;8.25;;;20.80;99.90;;;;;;5077643;28;20515;-75
2021/09/03 10:56:14;;;;;;;11.87;7.80;;;20.90;99.90;;;;;;5077299;28;20636;-73
2021/09/03 10:58:48;;;;;;;10.03;7.93;;;21.00;99.90;;;;;;5077251;28;20442;-74
2021/09/03 11:01:29;;;;;;;10.20;8.47;;;21.10;99.90;;;;;;5077160;28;20438;-75
2021/09/03 11:03:58;;;;;;;12.30;8.17;;;21.20;99.90;;;;;;5077407;28;20450;-74
2021/09/03 11:06:30;;;;;;;12.30;9.30;;;21.20;99.90;;;;;;5076428;28;20945;-74
2021/09/03 11:09:00;;;;;;;10.47;8.60;;;21.20;99.90;;;;;;5076819;28;20458;-74
2021/09/03 11:11:29;;;;;;;12.67;8.33;;;21.20;99.90;;;;;;5077018;28;20458;-73
2021/09/03 11:13:59;;;;;;;12.07;8.57;;;21.30;99.90;;;;;;5076888;28;20470;-73
2021/09/03 11:16:33;;;;;;;12.23;8.57;;;21.30;99.90;;;;;;5077189;28;20478;-74
2021/09/03 11:19:05;;;;;;;14.10;8.30;;;21.40;99.90;;;;;;5077148;28;20453;-74
2021/09/03 11:21:33;;;;;;;15.17;9.60;;;21.50;99.90;;;;;;5076995;28;20438;-74
2021/09/03 11:24:01;;;;;;;10.32;8.77;;;21.50;99.90;;;;;;5077548;28;20462;-72
2021/09/03 11:26:29;;;;;;;10.73;7.13;;;21.70;99.90;;;;;;5076787;28;20540;-72
2021/09/03 11:28:58;;;;;;;15.27;9.30;;;22.00;99.90;;;;;;5077829;28;20846;-75
2021/09/03 11:31:25;;;;;;;9.27;8.27;;;22.20;99.90;;;;;;5077302;28;20282;-73
2021/09/03 11:33:52;;;;;;;11.47;7.90;;;22.50;99.90;;;;;;5077633;28;20458;-74
2021/09/03 11:36:23;;;;;;;8.50;7.70;;;22.70;99.90;;;;;;5077841;28;20561;-74
2021/09/03 11:38:54;;;;;;;15.17;8.53;;;22.90;99.90;;;;;;5078390;28;20551;-74
2021/09/03 11:41:21;;;;;;;8.07;7.03;;;23.00;99.90;;;;;;5077092;28;20499;-73
2021/09/03 11:43:48;;;;;;;9.40;6.90;;;23.00;99.90;;;;;;5077537;28;20522;-73
2021/09/03 11:46:18;;;;;;;9.43;7.57;;;23.10;99.90;;;;;;5077441;28;20977;-73
2021/09/03 11:48:46;;;;;;;10.67;7.97;;;23.30;99.90;;;;;;5079049;28;20450;-73
2021/09/03 11:51:18;;;;;;;10.73;6.60;;;23.50;99.90;;;;;;5077047;28;20458;-73
2021/09/03 11:53:46;;;;;;;8.43;7.03;;;23.90;99.90;;;;;;5076230;28;20485;-74
2021/09/03 11:56:15;;;;;;;11.60;6.73;;;24.40;99.90;;;;;;5076628;28;20454;-73
2021/09/03 11:58:43;;;;;;;8.33;6.40;;;25.10;99.90;;;;;;5077980;28;20890;-75
2021/09/03 12:01:10;;;;;;;9.90;7.17;;;25.90;99.90;;;;;;5079153;28;20505;-75
2021/09/03 12:03:43;;;;;;;8.93;7.13;;;26.10;99.90;;;;;;5081428;28;21109;-75
2021/09/03 12:06:13;;;;;;;8.87;6.63;;;26.50;99.90;;;;;;5081222;28;20526;-74
2021/09/03 12:08:40;;;;;;;8.27;6.03;;;26.60;99.90;;;;;;5078488;28;20486;-76
2021/09/03 12:11:08;;;;;;;14.03;6.20;;;26.90;99.90;;;;;;5077479;28;20458;-75
2021/09/03 12:13:37;;;;;;;10.20;6.83;;;27.10;99.90;;;;;;5079213;28;20455;-75
2021/09/03 12:16:06;;;;;;;7.15;6.20;;;27.00;99.90;;;;;;5078212;28;20454;-75
2021/09/03 12:18:34;;;;;;;8.77;6.73;;;27.10;99.90;;;;;;5077767;28;20204;-75
2021/09/03 12:21:08;;;;;;;7.83;7.00;;;27.30;99.90;;;;;;5076822;28;20454;-76
2021/09/03 12:23:38;;;;;;;7.87;5.50;;;27.40;99.90;;;;;;5077567;28;20446;-75
2021/09/03 12:26:10;;;;;;;10.77;5.80;;;27.80;99.90;;;;;;5076942;28;20452;-75
2021/09/03 12:28:40;;;;;;;9.80;6.40;;;27.90;99.90;;;;;;5076491;28;20554;-74
2021/09/03 12:31:15;;;;;;;6.77;5.30;;;28.00;99.90;;;;;;5075637;28;20487;-74
2021/09/03 12:33:50;;;;;;;11.13;5.73;;;28.30;99.90;;;;;;5076260;28;20442;-74
2021/09/03 12:36:22;;;;;;;6.90;6.00;;;28.60;99.90;;;;;;5075486;28;20458;-75